createdAt,value
2018-09-27T00:02:15.339Z,2.75
2018-09-27T00:04:43.928Z,2.67
2018-09-27T00:07:12.603Z,2.45
2018-09-27T00:09:41.224Z,2.25
2018-09-27T00:12:09.896Z,2.25
2018-09-27T00:14:38.515Z,2.85
2018-09-27T00:17:07.087Z,2.75
2018-09-27T00:19:35.730Z,2.83
2018-09-27T00:22:04.385Z,2.47
2018-09-27T00:24:32.967Z,2.40
2018-09-27T00:27:01.597Z,3.12
2018-09-27T00:29:30.255Z,2.77
2018-09-27T00:31:58.819Z,3.17
2018-09-27T00:34:27.456Z,2.80
2018-09-27T00:36:56.184Z,2.85
2018-09-27T00:39:24.792Z,3.05
2018-09-27T00:41:53.395Z,2.80
2018-09-27T00:44:22.027Z,3.33
2018-09-27T00:46:50.608Z,3.12
2018-09-27T00:49:19.197Z,2.17
2018-09-27T00:51:47.808Z,3.65
2018-09-27T00:54:16.554Z,2.85
2018-09-27T00:56:45.132Z,2.65
2018-09-27T00:59:14.066Z,2.70
2018-09-27T01:01:43.101Z,3.72
2018-09-27T01:04:11.691Z,2.50
2018-09-27T01:06:40.411Z,3.50
2018-09-27T01:09:10.439Z,2.35
2018-09-27T01:11:39.461Z,3.02
2018-09-27T01:14:08.077Z,3.30
2018-09-27T01:16:36.659Z,2.47
2018-09-27T01:19:05.323Z,2.58
2018-09-27T01:21:33.903Z,2.70
2018-09-27T01:24:02.495Z,3.08
2018-09-27T01:26:31.107Z,2.75
2018-09-27T01:29:00.125Z,2.80
2018-09-27T01:31:28.854Z,2.95
2018-09-27T01:33:57.831Z,2.83
2018-09-27T01:36:26.432Z,2.95
2018-09-27T01:38:55.031Z,3.08
2018-09-27T01:41:23.882Z,2.40
2018-09-27T01:43:52.444Z,2.80
2018-09-27T01:46:20.998Z,3.00
2018-09-27T01:48:49.848Z,3.25
2018-09-27T01:51:18.672Z,2.83
2018-09-27T01:53:47.229Z,3.55
2018-09-27T01:56:15.847Z,2.77
2018-09-27T01:58:44.429Z,2.75
2018-09-27T02:01:13.008Z,2.90
2018-09-27T02:03:41.641Z,3.25
2018-09-27T02:06:10.236Z,2.52
2018-09-27T02:08:39.150Z,3.20
2018-09-27T02:11:07.909Z,2.47
2018-09-27T02:13:36.496Z,2.75
2018-09-27T02:16:05.104Z,3.00
2018-09-27T02:18:33.773Z,2.85
2018-09-27T02:21:02.336Z,3.42
2018-09-27T02:23:31.291Z,3.10
2018-09-27T02:25:59.964Z,2.65
2018-09-27T02:28:28.625Z,2.98
2018-09-27T02:30:57.201Z,3.27
2018-09-27T02:33:26.156Z,2.95
2018-09-27T02:35:54.736Z,3.10
2018-09-27T02:38:23.344Z,2.92
2018-09-27T02:40:51.980Z,3.08
2018-09-27T02:43:20.564Z,2.85
2018-09-27T02:45:49.137Z,2.70
2018-09-27T02:48:17.749Z,2.08
2018-09-27T02:50:46.363Z,3.60
2018-09-27T02:53:14.968Z,3.80
2018-09-27T02:55:43.639Z,3.47
2018-09-27T02:58:12.232Z,3.37
2018-09-27T03:00:40.988Z,3.30
2018-09-27T03:03:09.636Z,3.22
2018-09-27T03:05:38.187Z,3.37
2018-09-27T03:08:06.828Z,3.00
2018-09-27T03:10:35.503Z,3.85
2018-09-27T03:13:04.585Z,3.35
2018-09-27T03:15:33.204Z,3.60
2018-09-27T03:18:01.819Z,3.58
2018-09-27T03:20:30.410Z,3.37
2018-09-27T03:22:58.983Z,3.42
2018-09-27T03:25:27.636Z,3.08
2018-09-27T03:27:56.248Z,2.90
2018-09-27T03:30:25.105Z,3.05
2018-09-27T03:32:53.836Z,3.40
2018-09-27T03:35:22.422Z,4.55
2018-09-27T03:37:51.011Z,3.35
2018-09-27T03:40:19.938Z,3.40
2018-09-27T03:42:48.450Z,3.60
2018-09-27T03:45:17.047Z,3.27
2018-09-27T03:47:45.668Z,3.22
2018-09-27T03:50:14.243Z,3.50
2018-09-27T03:52:42.843Z,3.02
2018-09-27T03:55:11.541Z,4.20
2018-09-27T03:57:40.135Z,3.75
2018-09-27T04:00:09.084Z,2.92
2018-09-27T04:02:37.702Z,3.90
2018-09-27T04:05:06.350Z,2.67
2018-09-27T04:07:39.388Z,3.62
2018-09-27T04:10:08.001Z,3.20
2018-09-27T04:12:36.624Z,3.62
2018-09-27T04:15:05.950Z,3.60
2018-09-27T04:17:34.522Z,3.37
2018-09-27T04:20:03.277Z,3.40
2018-09-27T04:22:32.567Z,3.08
2018-09-27T04:25:01.127Z,3.17
2018-09-27T04:27:30.311Z,3.27
2018-09-27T04:29:59.072Z,3.20
2018-09-27T04:32:27.659Z,3.33
2018-09-27T04:34:56.247Z,2.98
2018-09-27T04:37:24.880Z,3.83
2018-09-27T04:39:53.474Z,2.85
2018-09-27T04:42:22.172Z,3.70
2018-09-27T04:44:50.852Z,4.20
2018-09-27T04:47:19.433Z,3.90
2018-09-27T04:49:48.020Z,4.03
2018-09-27T04:52:16.724Z,2.80
2018-09-27T04:54:45.374Z,3.98
2018-09-27T04:57:13.951Z,4.20
2018-09-27T04:59:42.693Z,3.67
2018-09-27T05:02:11.319Z,4.17
2018-09-27T05:04:40.293Z,4.10
2018-09-27T05:07:09.012Z,3.80
2018-09-27T05:09:37.960Z,3.95
2018-09-27T05:12:06.982Z,3.37
2018-09-27T05:14:35.592Z,4.20
2018-09-27T05:17:04.788Z,4.40
2018-09-27T05:19:33.471Z,3.92
2018-09-27T05:22:02.179Z,3.77
2018-09-27T05:24:30.771Z,4.55
2018-09-27T05:26:59.384Z,4.10
2018-09-27T05:29:28.030Z,3.30
2018-09-27T05:31:56.609Z,3.30
2018-09-27T05:34:25.202Z,3.62
2018-09-27T05:36:53.979Z,3.85
2018-09-27T05:39:22.576Z,3.92
2018-09-27T05:41:51.191Z,4.45
2018-09-27T05:44:19.839Z,3.87
2018-09-27T05:46:48.473Z,4.97
2018-09-27T05:49:17.073Z,4.00
2018-09-27T05:51:46.952Z,4.00
2018-09-27T05:54:15.579Z,4.60
2018-09-27T05:56:44.172Z,4.05
2018-09-27T05:59:12.876Z,4.58
2018-09-27T06:01:41.537Z,3.75
2018-09-27T06:04:10.160Z,4.87
2018-09-27T06:06:39.037Z,4.30
2018-09-27T06:09:10.431Z,4.33
2018-09-27T06:11:39.226Z,4.35
2018-09-27T06:14:08.372Z,4.20
2018-09-27T06:16:38.302Z,4.10
2018-09-27T06:19:07.472Z,3.95
2018-09-27T06:21:36.078Z,3.60
2018-09-27T06:24:04.680Z,4.22
2018-09-27T06:26:33.384Z,4.05
2018-09-27T06:29:01.968Z,4.15
2018-09-27T06:31:30.530Z,4.08
2018-09-27T06:33:59.487Z,3.17
2018-09-27T06:36:28.488Z,3.90
2018-09-27T06:38:57.504Z,4.12
2018-09-27T06:41:26.486Z,3.98
2018-09-27T06:43:55.100Z,4.00
2018-09-27T06:46:23.691Z,4.22
2018-09-27T06:48:52.407Z,3.70
2018-09-27T06:51:20.933Z,3.40
2018-09-27T06:53:49.539Z,4.33
2018-09-27T06:56:18.150Z,5.10
2018-09-27T06:58:46.708Z,3.40
2018-09-27T07:01:15.280Z,5.50
2018-09-27T07:03:43.992Z,4.40
2018-09-27T07:06:12.584Z,4.23
2018-09-27T07:08:41.238Z,3.67
2018-09-27T07:11:10.254Z,3.20
2018-09-27T07:13:38.839Z,3.77
2018-09-27T07:16:07.788Z,4.00
2018-09-27T07:18:36.426Z,3.27
2018-09-27T07:21:05.036Z,3.60
2018-09-27T07:23:33.613Z,4.50
2018-09-27T07:26:02.843Z,3.30
2018-09-27T07:28:31.468Z,4.37
2018-09-27T07:31:00.072Z,4.27
2018-09-27T07:33:28.793Z,5.20
2018-09-27T07:35:57.460Z,6.10
2018-09-27T07:38:26.143Z,4.27
2018-09-27T07:40:54.825Z,5.20
2018-09-27T07:43:23.418Z,4.50
2018-09-27T07:45:52.103Z,4.10
2018-09-27T07:48:20.765Z,5.00
2018-09-27T07:50:49.336Z,4.73
2018-09-27T07:53:17.928Z,3.87
2018-09-27T07:55:46.707Z,5.17
2018-09-27T07:58:15.299Z,5.00
2018-09-27T08:00:43.904Z,5.20
2018-09-27T08:03:12.684Z,4.67
2018-09-27T08:05:41.215Z,5.17
2018-09-27T08:08:09.800Z,4.53
2018-09-27T08:10:38.487Z,4.20
2018-09-27T08:13:07.108Z,5.10
2018-09-27T08:15:35.679Z,5.60
2018-09-27T08:18:04.594Z,4.60
2018-09-27T08:20:33.218Z,5.03
2018-09-27T08:23:01.812Z,4.50
2018-09-27T08:25:30.424Z,4.53
2018-09-27T08:27:59.008Z,4.90
2018-09-27T08:30:27.641Z,4.27
2018-09-27T08:32:56.611Z,5.20
2018-09-27T08:35:25.228Z,5.20
2018-09-27T08:37:53.804Z,5.10
2018-09-27T08:40:22.584Z,5.20
2018-09-27T08:42:51.188Z,5.90
2018-09-27T08:45:19.978Z,4.60
2018-09-27T08:47:48.824Z,4.00
2018-09-27T08:50:17.426Z,4.90
2018-09-27T08:52:46.056Z,4.30
2018-09-27T08:55:14.798Z,4.50
2018-09-27T08:57:43.526Z,5.03
2018-09-27T09:00:12.053Z,4.67
2018-09-27T09:02:40.655Z,4.73
2018-09-27T09:05:09.334Z,5.57
2018-09-27T09:07:38.007Z,4.77
2018-09-27T09:10:06.712Z,5.30
2018-09-27T09:12:35.321Z,4.97
2018-09-27T09:15:03.974Z,6.20
2018-09-27T09:17:32.695Z,4.20
2018-09-27T09:20:01.301Z,5.20
2018-09-27T09:22:29.923Z,4.20
2018-09-27T09:24:58.565Z,4.50
2018-09-27T09:27:27.297Z,4.53
2018-09-27T09:29:55.904Z,4.57
2018-09-27T09:32:24.582Z,4.47
2018-09-27T09:34:53.177Z,5.33
2018-09-27T09:37:21.797Z,4.47
2018-09-27T09:39:50.424Z,4.97
2018-09-27T09:42:19.008Z,4.33
2018-09-27T09:44:47.608Z,4.67
2018-09-27T09:47:16.339Z,4.97
2018-09-27T09:49:44.918Z,5.13
2018-09-27T09:52:13.508Z,4.37
2018-09-27T09:54:42.577Z,4.80
2018-09-27T09:57:11.184Z,4.17
2018-09-27T09:59:39.787Z,4.33
2018-09-27T10:02:08.402Z,4.97
2018-09-27T10:04:37.003Z,4.07
2018-09-27T10:07:05.640Z,4.47
2018-09-27T10:09:34.336Z,4.37
2018-09-27T10:12:02.907Z,4.07
2018-09-27T10:14:31.556Z,4.20
2018-09-27T10:17:00.227Z,3.43
2018-09-27T10:19:28.823Z,4.30
2018-09-27T10:21:57.419Z,3.67
2018-09-27T10:24:26.143Z,4.93
2018-09-27T10:26:54.779Z,4.40
2018-09-27T10:29:23.371Z,4.57
2018-09-27T10:31:52.004Z,4.10
2018-09-27T10:34:20.611Z,4.10
2018-09-27T10:36:49.180Z,3.47
2018-09-27T10:39:18.040Z,3.90
2018-09-27T10:41:46.619Z,3.20
2018-09-27T10:44:15.253Z,3.53
2018-09-27T10:46:43.859Z,3.17
2018-09-27T10:49:12.439Z,3.60
2018-09-27T10:51:41.044Z,3.70
2018-09-27T10:54:09.748Z,3.77
2018-09-27T10:56:38.336Z,4.00
2018-09-27T10:59:06.991Z,4.23
2018-09-27T11:01:35.680Z,3.77
2018-09-27T11:04:04.333Z,3.63
2018-09-27T11:06:32.859Z,4.87
2018-09-27T11:09:01.555Z,4.13
2018-09-27T11:11:30.231Z,3.90
2018-09-27T11:13:58.780Z,4.13
2018-09-27T11:16:27.433Z,4.17
2018-09-27T11:18:55.968Z,4.13
2018-09-27T11:21:24.559Z,3.40
2018-09-27T11:23:53.284Z,3.63
2018-09-27T11:26:21.888Z,3.03
2018-09-27T11:28:56.062Z,3.80
2018-09-27T11:31:29.907Z,3.30
2018-09-27T11:33:58.640Z,2.87
2018-09-27T11:36:27.287Z,3.00
2018-09-27T11:38:55.856Z,3.37
2018-09-27T11:41:24.874Z,3.80
2018-09-27T11:43:53.543Z,3.57
2018-09-27T11:46:22.109Z,3.80
2018-09-27T11:48:50.839Z,2.97
2018-09-27T11:51:19.496Z,3.10
2018-09-27T11:53:48.102Z,3.40
2018-09-27T11:56:16.777Z,3.50
2018-09-27T11:58:45.364Z,3.23
2018-09-27T12:01:13.981Z,3.50
2018-09-27T12:03:42.603Z,3.43
2018-09-27T12:06:11.185Z,4.00
2018-09-27T12:08:39.776Z,4.10
2018-09-27T12:11:08.419Z,2.93
2018-09-27T12:13:38.016Z,3.80
2018-09-27T12:16:07.328Z,3.40
2018-09-27T12:18:36.000Z,4.07
2018-09-27T12:21:04.628Z,4.27
2018-09-27T12:23:33.221Z,3.80
2018-09-27T12:26:01.940Z,3.83
2018-09-27T12:28:30.512Z,3.73
2018-09-27T12:30:59.196Z,3.63
2018-09-27T12:33:27.876Z,3.50
2018-09-27T12:35:56.469Z,3.50
2018-09-27T12:38:25.115Z,3.80
2018-09-27T12:40:54.464Z,3.17
2018-09-27T12:43:23.068Z,2.87
2018-09-27T12:45:51.698Z,3.13
2018-09-27T12:48:20.460Z,2.73
2018-09-27T12:50:49.015Z,3.30
2018-09-27T12:53:17.724Z,2.80
2018-09-27T12:55:46.320Z,3.17
2018-09-27T12:58:14.915Z,3.93
2018-09-27T13:00:43.523Z,4.03
2018-09-27T13:03:12.134Z,3.77
2018-09-27T13:05:40.748Z,4.07
2018-09-27T13:08:09.760Z,3.30
2018-09-27T13:10:38.417Z,3.90
2018-09-27T13:13:07.041Z,3.27
2018-09-27T13:15:35.639Z,3.23
2018-09-27T13:18:04.312Z,4.37
2018-09-27T13:20:33.003Z,4.47
2018-09-27T13:23:01.571Z,4.40
2018-09-27T13:25:30.254Z,4.30
2018-09-27T13:27:58.898Z,4.50
2018-09-27T13:30:27.515Z,4.47
2018-09-27T13:32:56.250Z,4.60
2018-09-27T13:35:24.861Z,4.43
2018-09-27T13:37:53.445Z,4.60
2018-09-27T13:40:22.168Z,4.30
2018-09-27T13:42:50.823Z,4.87
2018-09-27T13:45:19.433Z,5.20
2018-09-27T13:47:48.080Z,5.77
2018-09-27T13:50:16.769Z,5.17
2018-09-27T13:52:45.376Z,6.10
2018-09-27T13:55:13.994Z,4.60
2018-09-27T13:57:42.623Z,5.33
2018-09-27T14:00:11.498Z,4.53
2018-09-27T14:02:40.543Z,4.17
2018-09-27T14:05:09.197Z,4.07
2018-09-27T14:07:37.771Z,4.77
2018-09-27T14:10:06.468Z,4.70
2018-09-27T14:12:35.074Z,4.37
2018-09-27T14:15:03.733Z,3.80
2018-09-27T14:17:33.044Z,4.90
2018-09-27T14:20:01.709Z,4.80
2018-09-27T14:22:30.272Z,4.17
2018-09-27T14:24:59.032Z,4.30
2018-09-27T14:27:27.721Z,5.00
2018-09-27T14:29:56.400Z,4.90
2018-09-27T14:32:25.212Z,4.97
2018-09-27T14:34:53.780Z,4.43
2018-09-27T14:37:22.380Z,5.23
2018-09-27T14:39:51.088Z,5.27
2018-09-27T14:42:19.664Z,3.97
2018-09-27T14:44:48.247Z,4.87
2018-09-27T14:47:16.952Z,4.00
2018-09-27T14:49:45.532Z,5.40
2018-09-27T14:52:14.128Z,5.30
2018-09-27T14:54:43.225Z,5.53
2018-09-27T14:57:11.872Z,5.00
2018-09-27T14:59:40.517Z,3.90
2018-09-27T15:02:09.331Z,5.10
2018-09-27T15:04:37.940Z,4.70
2018-09-27T15:07:06.558Z,5.07
2018-09-27T15:09:35.378Z,4.43
2018-09-27T15:12:03.908Z,4.17
2018-09-27T15:14:32.546Z,4.60
2018-09-27T15:17:01.240Z,5.10
2018-09-27T15:19:29.828Z,5.20
2018-09-27T15:21:58.488Z,4.90
2018-09-27T15:24:27.207Z,5.33
2018-09-27T15:26:55.804Z,5.00
2018-09-27T15:29:24.404Z,4.00
2018-09-27T15:31:53.232Z,4.43
2018-09-27T15:34:22.065Z,4.00
2018-09-27T15:36:50.661Z,3.70
2018-09-27T15:39:19.551Z,3.43
2018-09-27T15:41:48.168Z,2.50
2018-09-27T15:44:16.760Z,3.60
2018-09-27T15:46:45.647Z,3.07
2018-09-27T15:49:14.230Z,3.43
2018-09-27T15:51:42.857Z,3.90
2018-09-27T15:54:11.578Z,3.53
2018-09-27T15:56:40.173Z,2.70
2018-09-27T15:59:08.877Z,3.10
2018-09-27T16:01:37.597Z,2.70
2018-09-27T16:04:06.278Z,2.90
2018-09-27T16:06:34.853Z,2.57
2018-09-27T16:09:03.656Z,2.33
2018-09-27T16:11:32.324Z,2.43
2018-09-27T16:14:00.984Z,2.33
2018-09-27T16:16:29.617Z,2.57
2018-09-27T16:18:58.218Z,2.60
2018-09-27T16:21:26.847Z,1.90
2018-09-27T16:23:55.948Z,2.13
2018-09-27T16:26:24.549Z,4.70
2018-09-27T16:28:53.159Z,3.00
2018-09-27T16:31:21.780Z,3.63
2018-09-27T16:33:50.388Z,3.70
2018-09-27T16:36:19.079Z,3.63
2018-09-27T16:38:47.788Z,2.90
2018-09-27T16:41:16.400Z,3.10
2018-09-27T16:43:45.036Z,3.83
2018-09-27T16:46:13.677Z,4.30
2018-09-27T16:48:42.272Z,5.70
2018-09-27T16:51:11.807Z,4.77
2018-09-27T16:53:40.685Z,4.53
2018-09-27T16:56:09.260Z,3.83
2018-09-27T16:58:37.823Z,4.13
2018-09-27T17:01:06.809Z,6.10
2018-09-27T17:03:35.467Z,3.97
2018-09-27T17:06:04.080Z,4.67
2018-09-27T17:08:32.913Z,5.20
2018-09-27T17:11:01.548Z,5.90
2018-09-27T17:13:30.120Z,7.20
2018-09-27T17:15:58.824Z,5.50
2018-09-27T17:18:27.438Z,6.50
2018-09-27T17:20:56.051Z,5.90
2018-09-27T17:23:24.807Z,3.50
2018-09-27T17:25:53.374Z,5.70
2018-09-27T17:28:22.013Z,5.23
2018-09-27T17:30:50.697Z,6.70
2018-09-27T17:33:19.388Z,7.13
2018-09-27T17:35:47.937Z,3.67
2018-09-27T17:38:16.584Z,3.90
2018-09-27T17:40:45.276Z,4.27
2018-09-27T17:43:13.881Z,3.23
2018-09-27T17:45:42.592Z,2.30
2018-09-27T17:48:11.219Z,2.90
2018-09-27T17:50:39.852Z,2.90
2018-09-27T17:53:08.709Z,2.63
2018-09-27T17:55:37.279Z,3.47
2018-09-27T17:58:05.865Z,4.10
2018-09-27T18:00:34.570Z,3.20
2018-09-27T18:03:03.252Z,2.90
2018-09-27T18:05:31.895Z,3.30
2018-09-27T18:08:00.890Z,3.20
2018-09-27T18:10:29.545Z,3.50
2018-09-27T18:12:58.112Z,3.67
2018-09-27T18:15:26.817Z,3.93
2018-09-27T18:17:55.431Z,3.57
2018-09-27T18:20:24.074Z,3.80
2018-09-27T18:22:52.760Z,3.13
2018-09-27T18:25:21.367Z,4.30
2018-09-27T18:27:49.947Z,5.07
2018-09-27T18:30:18.668Z,3.90
2018-09-27T18:32:47.248Z,4.07
2018-09-27T18:35:15.829Z,3.50
2018-09-27T18:37:44.564Z,5.90
2018-09-27T18:40:13.509Z,4.70
2018-09-27T18:42:42.069Z,3.80
2018-09-27T18:45:10.789Z,5.67
2018-09-27T18:47:39.384Z,4.33
2018-09-27T18:50:08.484Z,3.73
2018-09-27T18:52:37.228Z,3.93
2018-09-27T18:55:05.927Z,3.40
2018-09-27T18:57:34.488Z,3.27
2018-09-27T19:00:03.236Z,4.10
2018-09-27T19:02:31.852Z,3.53
2018-09-27T19:05:00.460Z,3.60
2018-09-27T19:07:29.101Z,3.67
2018-09-27T19:09:57.713Z,4.23
2018-09-27T19:12:26.424Z,3.80
2018-09-27T19:14:55.412Z,2.73
2018-09-27T19:17:24.044Z,3.77
2018-09-27T19:19:52.661Z,4.40
2018-09-27T19:22:21.401Z,3.70
2018-09-27T19:24:50.028Z,3.40
2018-09-27T19:27:18.616Z,4.80
2018-09-27T19:29:47.634Z,3.23
2018-09-27T19:32:16.307Z,3.57
2018-09-27T19:34:44.948Z,2.83
2018-09-27T19:37:13.572Z,3.17
2018-09-27T19:39:42.176Z,3.13
2018-09-27T19:42:10.776Z,2.77
2018-09-27T19:44:39.732Z,2.93
2018-09-27T19:47:08.341Z,3.00
2018-09-27T19:49:36.940Z,3.77
2018-09-27T19:52:05.702Z,3.90
2018-09-27T19:54:34.295Z,3.30
2018-09-27T19:57:02.928Z,4.13
2018-09-27T19:59:31.693Z,3.57
2018-09-27T20:02:00.335Z,4.10
2018-09-27T20:04:28.992Z,4.40
2018-09-27T20:06:57.675Z,4.53
2018-09-27T20:09:26.285Z,3.60
2018-09-27T20:11:54.914Z,4.37
2018-09-27T20:14:23.917Z,4.30
2018-09-27T20:16:52.527Z,4.70
2018-09-27T20:19:21.236Z,4.20
2018-09-27T20:21:50.508Z,3.80
2018-09-27T20:24:19.103Z,3.23
2018-09-27T20:26:47.715Z,3.67
2018-09-27T20:29:16.420Z,3.80
2018-09-27T20:31:45.219Z,3.87
2018-09-27T20:34:14.285Z,5.17
2018-09-27T20:36:43.316Z,5.40
2018-09-27T20:39:12.454Z,4.80
2018-09-27T20:41:41.552Z,4.63
2018-09-27T20:44:10.188Z,3.70
2018-09-27T20:46:38.795Z,3.90
2018-09-27T20:49:07.462Z,4.20
2018-09-27T20:51:36.291Z,3.87
2018-09-27T20:54:04.906Z,4.20
2018-09-27T20:56:33.504Z,4.90
2018-09-27T20:59:02.169Z,4.60
2018-09-27T21:01:30.907Z,3.97
2018-09-27T21:03:59.464Z,4.17
2018-09-27T21:06:28.155Z,4.23
2018-09-27T21:08:56.712Z,4.37
2018-09-27T21:11:25.432Z,4.73
2018-09-27T21:13:54.119Z,4.17
2018-09-27T21:16:22.702Z,5.30
2018-09-27T21:18:51.648Z,4.07
2018-09-27T21:21:20.307Z,4.20
2018-09-27T21:23:48.888Z,5.70
2018-09-27T21:26:17.640Z,3.63
2018-09-27T21:28:46.307Z,4.03
2018-09-27T21:31:14.896Z,4.67
2018-09-27T21:33:43.449Z,4.93
2018-09-27T21:36:12.043Z,4.00
2018-09-27T21:38:40.648Z,4.43
2018-09-27T21:41:09.327Z,4.17
2018-09-27T21:43:38.017Z,3.93
2018-09-27T21:46:06.620Z,4.00
2018-09-27T21:48:35.205Z,3.50
2018-09-27T21:51:03.791Z,3.67
2018-09-27T21:53:32.405Z,3.67
2018-09-27T21:56:00.955Z,4.13
2018-09-27T21:58:29.739Z,4.83
2018-09-27T22:00:58.389Z,5.67
2018-09-27T22:03:27.518Z,4.80
2018-09-27T22:05:56.183Z,3.23
2018-09-27T22:08:24.975Z,3.80
2018-09-27T22:10:54.015Z,3.90
2018-09-27T22:13:22.684Z,5.10
2018-09-27T22:15:51.419Z,4.57
2018-09-27T22:18:20.011Z,4.70
2018-09-27T22:20:48.852Z,5.30
2018-09-27T22:23:17.427Z,4.80
2018-09-27T22:25:45.976Z,4.50
2018-09-27T22:28:14.691Z,5.00
2018-09-27T22:30:43.268Z,4.13
2018-09-27T22:33:11.840Z,4.43
2018-09-27T22:35:40.614Z,4.60
2018-09-27T22:38:09.180Z,5.40
2018-09-27T22:40:37.746Z,5.40
2018-09-27T22:43:06.355Z,4.97
2018-09-27T22:45:34.922Z,4.53
2018-09-27T22:48:03.592Z,4.23
2018-09-27T22:50:32.263Z,4.43
2018-09-27T22:53:00.834Z,5.03
2018-09-27T22:55:29.811Z,4.90
2018-09-27T22:57:58.463Z,4.17
2018-09-27T23:00:27.271Z,4.70
2018-09-27T23:02:56.037Z,4.67
2018-09-27T23:05:24.856Z,4.00
2018-09-27T23:07:53.703Z,5.20
2018-09-27T23:10:22.273Z,4.33
2018-09-27T23:12:51.073Z,4.30
2018-09-27T23:15:19.614Z,4.10
2018-09-27T23:17:48.171Z,4.13
2018-09-27T23:20:16.872Z,4.70
2018-09-27T23:22:49.513Z,4.50
2018-09-27T23:25:23.724Z,4.30
2018-09-27T23:27:52.744Z,4.03
2018-09-27T23:30:21.367Z,4.70
2018-09-27T23:32:49.986Z,4.90
2018-09-27T23:35:18.534Z,4.17
2018-09-27T23:37:47.260Z,5.60
2018-09-27T23:40:16.623Z,5.33
2018-09-27T23:42:45.204Z,4.63
2018-09-27T23:45:13.826Z,4.53
2018-09-27T23:47:42.536Z,4.90
2018-09-27T23:50:11.177Z,4.93
2018-09-27T23:52:39.756Z,4.37
2018-09-27T23:55:08.388Z,5.33
2018-09-27T23:57:36.973Z,4.07
